sensor_id;sensor_type;location;lat;lon;timestamp;pressure;altitude;pressure_sealevel;temperature;humidity
68476;BME280;55464;48.266;14.188;2023-05-10T00:00:33;97129.38;;;14.00;54.90
68476;BME280;55464;48.266;14.188;2023-05-10T00:02:59;97116.75;;;14.03;54.62
68476;BME280;55464;48.266;14.188;2023-05-10T00:05:24;97111.19;;;13.99;54.73
68476;BME280;55464;48.266;14.188;2023-05-10T00:07:50;97117.03;;;13.90;54.62
68476;BME280;55464;48.266;14.188;2023-05-10T00:10:15;97117.41;;;13.89;54.71
68476;BME280;55464;48.266;14.188;2023-05-10T00:12:40;97120.16;;;13.85;54.80
68476;BME280;55464;48.266;14.188;2023-05-10T00:15:07;97111.84;;;13.85;54.91
68476;BME280;55464;48.266;14.188;2023-05-10T00:17:34;97119.78;;;13.87;54.58
68476;BME280;55464;48.266;14.188;2023-05-10T00:20:00;97120.97;;;13.89;54.57
68476;BME280;55464;48.266;14.188;2023-05-10T00:22:25;97118.19;;;13.86;55.01
68476;BME280;55464;48.266;14.188;2023-05-10T00:24:51;97116.94;;;13.83;54.56
68476;BME280;55464;48.266;14.188;2023-05-10T00:27:16;97105.81;;;13.76;54.81
68476;BME280;55464;48.266;14.188;2023-05-10T00:29:41;97118.97;;;13.86;54.60
68476;BME280;55464;48.266;14.188;2023-05-10T00:32:07;97112.16;;;13.76;54.72
68476;BME280;55464;48.266;14.188;2023-05-10T00:34:32;97120.50;;;13.80;54.80
68476;BME280;55464;48.266;14.188;2023-05-10T00:36:58;97117.75;;;13.80;54.75
68476;BME280;55464;48.266;14.188;2023-05-10T00:39:23;97116.44;;;13.70;54.84
68476;BME280;55464;48.266;14.188;2023-05-10T00:41:49;97110.22;;;13.80;54.37
68476;BME280;55464;48.266;14.188;2023-05-10T00:44:14;97121.22;;;13.73;54.68
68476;BME280;55464;48.266;14.188;2023-05-10T00:46:40;97129.53;;;13.73;54.42
68476;BME280;55464;48.266;14.188;2023-05-10T00:49:06;97127.50;;;13.67;54.77
68476;BME280;55464;48.266;14.188;2023-05-10T00:51:31;97141.41;;;13.74;54.88
68476;BME280;55464;48.266;14.188;2023-05-10T00:53:58;97145.34;;;13.69;54.88
68476;BME280;55464;48.266;14.188;2023-05-10T00:56:24;97142.13;;;13.67;54.79
68476;BME280;55464;48.266;14.188;2023-05-10T00:58:50;97146.13;;;13.70;54.56
68476;BME280;55464;48.266;14.188;2023-05-10T01:01:16;97142.56;;;13.69;54.83
68476;BME280;55464;48.266;14.188;2023-05-10T01:03:41;97135.78;;;13.63;54.96
68476;BME280;55464;48.266;14.188;2023-05-10T01:06:07;97148.44;;;13.64;54.91
68476;BME280;55464;48.266;14.188;2023-05-10T01:08:33;97148.00;;;13.62;54.74
68476;BME280;55464;48.266;14.188;2023-05-10T01:10:58;97131.72;;;13.53;54.64
68476;BME280;55464;48.266;14.188;2023-05-10T01:13:36;97149.63;;;13.63;54.94
68476;BME280;55464;48.266;14.188;2023-05-10T01:16:03;97143.22;;;13.55;54.69
68476;BME280;55464;48.266;14.188;2023-05-10T01:18:41;97154.34;;;13.59;54.80
68476;BME280;55464;48.266;14.188;2023-05-10T01:27:19;97138.03;;;13.50;54.83
68476;BME280;55464;48.266;14.188;2023-05-10T01:30:15;97145.53;;;13.53;54.97
68476;BME280;55464;48.266;14.188;2023-05-10T01:35:40;97149.88;;;13.51;54.75
68476;BME280;55464;48.266;14.188;2023-05-10T01:38:22;97152.66;;;13.51;54.88
68476;BME280;55464;48.266;14.188;2023-05-10T01:46:17;97152.53;;;13.40;54.92
68476;BME280;55464;48.266;14.188;2023-05-10T01:48:51;97150.91;;;13.35;54.84
68476;BME280;55464;48.266;14.188;2023-05-10T01:51:24;97146.94;;;13.33;55.12
68476;BME280;55464;48.266;14.188;2023-05-10T01:53:54;97152.09;;;13.34;54.98
68476;BME280;55464;48.266;14.188;2023-05-10T01:56:26;97142.56;;;13.32;55.24
68476;BME280;55464;48.266;14.188;2023-05-10T01:58:54;97146.44;;;13.27;55.42
68476;BME280;55464;48.266;14.188;2023-05-10T02:01:21;97147.97;;;13.24;55.58
68476;BME280;55464;48.266;14.188;2023-05-10T02:03:49;97150.66;;;13.17;55.86
68476;BME280;55464;48.266;14.188;2023-05-10T02:06:18;97151.78;;;13.13;56.14
68476;BME280;55464;48.266;14.188;2023-05-10T02:08:45;97139.44;;;13.03;56.20
68476;BME280;55464;48.266;14.188;2023-05-10T02:11:13;97163.59;;;13.06;56.66
68476;BME280;55464;48.266;14.188;2023-05-10T02:13:39;97161.53;;;12.99;56.77
68476;BME280;55464;48.266;14.188;2023-05-10T02:16:05;97157.63;;;12.74;57.01
68476;BME280;55464;48.266;14.188;2023-05-10T02:18:33;97162.25;;;12.66;57.39
68476;BME280;55464;48.266;14.188;2023-05-10T02:21:00;97170.13;;;12.64;57.65
68476;BME280;55464;48.266;14.188;2023-05-10T02:23:27;97168.16;;;12.64;57.71
68476;BME280;55464;48.266;14.188;2023-05-10T02:25:54;97170.94;;;12.64;57.40
68476;BME280;55464;48.266;14.188;2023-05-10T02:28:23;97160.13;;;12.56;57.62
68476;BME280;55464;48.266;14.188;2023-05-10T02:30:48;97158.38;;;12.44;57.65
68476;BME280;55464;48.266;14.188;2023-05-10T02:33:15;97171.94;;;12.53;57.93
68476;BME280;55464;48.266;14.188;2023-05-10T02:35:40;97167.50;;;12.48;58.12
68476;BME280;55464;48.266;14.188;2023-05-10T02:38:07;97177.72;;;12.44;57.98
68476;BME280;55464;48.266;14.188;2023-05-10T02:40:34;97166.34;;;12.49;58.24
68476;BME280;55464;48.266;14.188;2023-05-10T02:43:02;97168.34;;;12.48;58.61
68476;BME280;55464;48.266;14.188;2023-05-10T02:45:30;97173.34;;;12.43;58.65
68476;BME280;55464;48.266;14.188;2023-05-10T02:47:56;97166.16;;;12.35;58.94
68476;BME280;55464;48.266;14.188;2023-05-10T02:50:22;97177.19;;;12.35;59.29
68476;BME280;55464;48.266;14.188;2023-05-10T02:52:51;97176.00;;;12.36;59.42
68476;BME280;55464;48.266;14.188;2023-05-10T02:55:25;97176.84;;;12.36;59.48
68476;BME280;55464;48.266;14.188;2023-05-10T02:57:59;97176.94;;;12.43;59.58
68476;BME280;55464;48.266;14.188;2023-05-10T03:00:25;97170.59;;;12.43;59.76
68476;BME280;55464;48.266;14.188;2023-05-10T03:02:51;97174.50;;;12.38;60.07
68476;BME280;55464;48.266;14.188;2023-05-10T03:05:16;97170.88;;;12.34;59.98
68476;BME280;55464;48.266;14.188;2023-05-10T03:07:42;97166.41;;;12.26;60.33
68476;BME280;55464;48.266;14.188;2023-05-10T03:10:08;97166.00;;;12.24;60.19
68476;BME280;55464;48.266;14.188;2023-05-10T03:13:36;97167.16;;;12.23;60.29
68476;BME280;55464;48.266;14.188;2023-05-10T03:18:10;97175.47;;;12.26;60.27
68476;BME280;55464;48.266;14.188;2023-05-10T03:23:13;97180.09;;;12.19;60.07
68476;BME280;55464;48.266;14.188;2023-05-10T03:25:39;97162.34;;;12.20;59.94
68476;BME280;55464;48.266;14.188;2023-05-10T03:28:06;97175.19;;;12.32;60.80
68476;BME280;55464;48.266;14.188;2023-05-10T03:30:33;97167.16;;;12.23;61.11
68476;BME280;55464;48.266;14.188;2023-05-10T03:33:04;97172.00;;;12.29;61.18
68476;BME280;55464;48.266;14.188;2023-05-10T03:35:30;97171.94;;;12.26;61.60
68476;BME280;55464;48.266;14.188;2023-05-10T03:37:55;97185.75;;;12.26;61.49
68476;BME280;55464;48.266;14.188;2023-05-10T03:40:21;97174.69;;;12.26;61.70
68476;BME280;55464;48.266;14.188;2023-05-10T03:42:48;97175.44;;;12.23;61.77
68476;BME280;55464;48.266;14.188;2023-05-10T03:45:13;97179.03;;;12.27;61.91
68476;BME280;55464;48.266;14.188;2023-05-10T03:47:39;97179.50;;;12.29;61.49
68476;BME280;55464;48.266;14.188;2023-05-10T03:50:04;97171.63;;;12.31;61.39
68476;BME280;55464;48.266;14.188;2023-05-10T03:52:30;97171.25;;;12.33;61.99
68476;BME280;55464;48.266;14.188;2023-05-10T03:54:56;97182.06;;;12.41;61.46
68476;BME280;55464;48.266;14.188;2023-05-10T03:57:21;97179.34;;;12.45;61.90
68476;BME280;55464;48.266;14.188;2023-05-10T03:59:46;97186.44;;;12.46;62.12
68476;BME280;55464;48.266;14.188;2023-05-10T04:02:12;97189.22;;;12.46;61.89
68476;BME280;55464;48.266;14.188;2023-05-10T04:04:37;97187.69;;;12.48;62.05
68476;BME280;55464;48.266;14.188;2023-05-10T04:07:03;97188.47;;;12.49;61.42
68476;BME280;55464;48.266;14.188;2023-05-10T04:09:28;97195.28;;;12.55;61.18
68476;BME280;55464;48.266;14.188;2023-05-10T04:11:53;97191.28;;;12.53;60.76
68476;BME280;55464;48.266;14.188;2023-05-10T04:14:19;97198.09;;;12.59;60.82
68476;BME280;55464;48.266;14.188;2023-05-10T04:16:44;97196.13;;;12.59;60.83
68476;BME280;55464;48.266;14.188;2023-05-10T04:19:10;97196.50;;;12.58;61.13
68476;BME280;55464;48.266;14.188;2023-05-10T04:21:36;97205.63;;;12.62;61.18
68476;BME280;55464;48.266;14.188;2023-05-10T04:24:01;97204.06;;;12.61;61.74
68476;BME280;55464;48.266;14.188;2023-05-10T04:26:27;97201.28;;;12.61;61.95
68476;BME280;55464;48.266;14.188;2023-05-10T04:28:52;97196.81;;;12.53;61.88
68476;BME280;55464;48.266;14.188;2023-05-10T04:31:18;97199.63;;;12.56;62.28
68476;BME280;55464;48.266;14.188;2023-05-10T04:33:43;97197.34;;;12.62;62.19
68476;BME280;55464;48.266;14.188;2023-05-10T04:36:08;97209.38;;;12.73;62.16
68476;BME280;55464;48.266;14.188;2023-05-10T04:38:34;97202.56;;;12.67;61.59
68476;BME280;55464;48.266;14.188;2023-05-10T04:41:07;97206.22;;;12.75;61.67
68476;BME280;55464;48.266;14.188;2023-05-10T04:43:33;97207.03;;;12.75;61.44
68476;BME280;55464;48.266;14.188;2023-05-10T04:45:59;97201.44;;;12.72;61.33
68476;BME280;55464;48.266;14.188;2023-05-10T04:48:24;97207.03;;;12.75;61.08
68476;BME280;55464;48.266;14.188;2023-05-10T04:50:50;97213.72;;;12.74;61.26
68476;BME280;55464;48.266;14.188;2023-05-10T04:53:15;97210.56;;;12.76;61.50
68476;BME280;55464;48.266;14.188;2023-05-10T04:55:41;97209.84;;;12.79;61.29
68476;BME280;55464;48.266;14.188;2023-05-10T04:58:06;97216.97;;;12.80;61.37
68476;BME280;55464;48.266;14.188;2023-05-10T05:00:33;97210.25;;;12.81;60.89
68476;BME280;55464;48.266;14.188;2023-05-10T05:02:58;97213.06;;;12.84;61.54
68476;BME280;55464;48.266;14.188;2023-05-10T05:05:24;97219.03;;;12.86;62.14
68476;BME280;55464;48.266;14.188;2023-05-10T05:07:50;97216.22;;;12.83;62.53
68476;BME280;55464;48.266;14.188;2023-05-10T05:10:15;97223.41;;;12.88;62.15
68476;BME280;55464;48.266;14.188;2023-05-10T05:12:41;97219.88;;;12.91;61.64
68476;BME280;55464;48.266;14.188;2023-05-10T05:15:06;97220.25;;;12.89;62.25
68476;BME280;55464;48.266;14.188;2023-05-10T05:17:34;97209.56;;;12.88;61.69
68476;BME280;55464;48.266;14.188;2023-05-10T05:19:59;97225.47;;;12.94;61.67
68476;BME280;55464;48.266;14.188;2023-05-10T05:22:25;97231.78;;;12.95;61.66
68476;BME280;55464;48.266;14.188;2023-05-10T05:24:56;97225.06;;;12.92;61.36
68476;BME280;55464;48.266;14.188;2023-05-10T05:27:24;97232.22;;;12.97;61.31
68476;BME280;55464;48.266;14.188;2023-05-10T05:29:52;97233.75;;;12.94;61.80
68476;BME280;55464;48.266;14.188;2023-05-10T05:32:18;97238.09;;;12.95;61.45
68476;BME280;55464;48.266;14.188;2023-05-10T05:34:47;97236.22;;;12.99;61.36
68476;BME280;55464;48.266;14.188;2023-05-10T05:37:22;97230.25;;;12.97;61.01
68476;BME280;55464;48.266;14.188;2023-05-10T05:39:48;97235.03;;;13.00;61.80
68476;BME280;55464;48.266;14.188;2023-05-10T05:42:13;97229.03;;;12.95;61.50
68476;BME280;55464;48.266;14.188;2023-05-10T05:44:40;97240.97;;;13.02;61.32
68476;BME280;55464;48.266;14.188;2023-05-10T05:47:06;97244.19;;;13.04;61.21
68476;BME280;55464;48.266;14.188;2023-05-10T05:49:31;97243.38;;;13.04;61.35
68476;BME280;55464;48.266;14.188;2023-05-10T05:52:01;97243.75;;;13.02;60.77
68476;BME280;55464;48.266;14.188;2023-05-10T05:54:26;97252.81;;;12.99;60.89
68476;BME280;55464;48.266;14.188;2023-05-10T05:56:59;97248.06;;;13.00;60.75
68476;BME280;55464;48.266;14.188;2023-05-10T05:59:25;97247.59;;;12.94;60.82
68476;BME280;55464;48.266;14.188;2023-05-10T06:01:50;97263.50;;;13.01;61.30
68476;BME280;55464;48.266;14.188;2023-05-10T06:04:16;97239.56;;;12.85;61.59
68476;BME280;55464;48.266;14.188;2023-05-10T06:06:42;97256.41;;;13.03;62.36
68476;BME280;55464;48.266;14.188;2023-05-10T06:09:07;97259.56;;;13.02;62.52
68476;BME280;55464;48.266;14.188;2023-05-10T06:11:33;97264.63;;;12.96;61.79
68476;BME280;55464;48.266;14.188;2023-05-10T06:13:59;97267.38;;;12.96;61.65
68476;BME280;55464;48.266;14.188;2023-05-10T06:16:25;97272.53;;;12.98;61.85
68476;BME280;55464;48.266;14.188;2023-05-10T06:18:51;97270.09;;;12.93;61.79
68476;BME280;55464;48.266;14.188;2023-05-10T06:21:16;97270.47;;;12.91;62.45
68476;BME280;55464;48.266;14.188;2023-05-10T06:23:41;97275.19;;;12.91;62.52
68476;BME280;55464;48.266;14.188;2023-05-10T06:26:07;97276.03;;;12.95;63.09
68476;BME280;55464;48.266;14.188;2023-05-10T06:28:33;97287.94;;;12.99;62.84
68476;BME280;55464;48.266;14.188;2023-05-10T06:30:59;97284.75;;;12.97;62.41
68476;BME280;55464;48.266;14.188;2023-05-10T06:33:24;97293.44;;;12.95;62.74
68476;BME280;55464;48.266;14.188;2023-05-10T06:35:50;97279.13;;;12.90;62.81
68476;BME280;55464;48.266;14.188;2023-05-10T06:38:15;97293.06;;;12.97;63.33
68476;BME280;55464;48.266;14.188;2023-05-10T06:40:41;97288.22;;;12.90;63.75
68476;BME280;55464;48.266;14.188;2023-05-10T06:43:07;97289.41;;;12.89;64.41
68476;BME280;55464;48.266;14.188;2023-05-10T06:45:32;97299.72;;;12.92;64.36
68476;BME280;55464;48.266;14.188;2023-05-10T06:47:58;97299.28;;;12.90;63.80
68476;BME280;55464;48.266;14.188;2023-05-10T06:50:23;97289.03;;;12.91;64.23
68476;BME280;55464;48.266;14.188;2023-05-10T06:52:48;97282.22;;;12.84;64.25
68476;BME280;55464;48.266;14.188;2023-05-10T06:55:14;97296.97;;;12.92;64.04
68476;BME280;55464;48.266;14.188;2023-05-10T06:57:39;97294.19;;;12.92;64.88
68476;BME280;55464;48.266;14.188;2023-05-10T07:00:05;97293.75;;;12.90;65.14
68476;BME280;55464;48.266;14.188;2023-05-10T07:02:31;97304.44;;;12.92;64.89
68476;BME280;55464;48.266;14.188;2023-05-10T07:04:56;97285.41;;;12.86;64.67
68476;BME280;55464;48.266;14.188;2023-05-10T07:07:22;97301.72;;;12.95;64.93
68476;BME280;55464;48.266;14.188;2023-05-10T07:09:48;97308.50;;;12.98;65.52
68476;BME280;55464;48.266;14.188;2023-05-10T07:12:15;97301.84;;;13.02;65.71
68476;BME280;55464;48.266;14.188;2023-05-10T07:14:40;97298.28;;;13.02;65.35
68476;BME280;55464;48.266;14.188;2023-05-10T07:17:06;97300.72;;;13.07;65.27
68476;BME280;55464;48.266;14.188;2023-05-10T07:19:31;97307.91;;;13.12;65.49
68476;BME280;55464;48.266;14.188;2023-05-10T07:21:58;97299.25;;;13.13;65.35
68476;BME280;55464;48.266;14.188;2023-05-10T07:24:23;97307.19;;;13.15;65.16
68476;BME280;55464;48.266;14.188;2023-05-10T07:26:49;97316.69;;;13.17;65.18
68476;BME280;55464;48.266;14.188;2023-05-10T07:29:15;97314.66;;;13.14;65.54
68476;BME280;55464;48.266;14.188;2023-05-10T07:31:40;97313.97;;;13.21;65.77
68476;BME280;55464;48.266;14.188;2023-05-10T07:34:08;97307.66;;;13.20;65.69
68476;BME280;55464;48.266;14.188;2023-05-10T07:36:34;97310.47;;;13.24;65.94
68476;BME280;55464;48.266;14.188;2023-05-10T07:38:59;97304.94;;;13.24;65.68
68476;BME280;55464;48.266;14.188;2023-05-10T07:41:25;97321.91;;;13.22;65.84
68476;BME280;55464;48.266;14.188;2023-05-10T07:43:50;97319.88;;;13.19;66.29
68476;BME280;55464;48.266;14.188;2023-05-10T07:46:15;97312.63;;;13.11;66.34
68476;BME280;55464;48.266;14.188;2023-05-10T07:48:41;97321.44;;;13.17;66.67
68476;BME280;55464;48.266;14.188;2023-05-10T07:51:06;97321.75;;;13.12;67.25
68476;BME280;55464;48.266;14.188;2023-05-10T07:53:34;97321.75;;;13.12;68.25
68476;BME280;55464;48.266;14.188;2023-05-10T07:56:26;97328.06;;;13.12;69.41
68476;BME280;55464;48.266;14.188;2023-05-10T07:58:55;97326.81;;;13.06;70.12
68476;BME280;55464;48.266;14.188;2023-05-10T08:01:21;97320.47;;;13.05;70.32
68476;BME280;55464;48.266;14.188;2023-05-10T08:03:47;97327.19;;;13.04;69.67
68476;BME280;55464;48.266;14.188;2023-05-10T08:06:12;97326.72;;;13.02;70.46
68476;BME280;55464;48.266;14.188;2023-05-10T08:08:38;97331.84;;;13.00;70.55
68476;BME280;55464;48.266;14.188;2023-05-10T08:11:03;97332.59;;;12.97;70.79
68476;BME280;55464;48.266;14.188;2023-05-10T08:13:29;97336.94;;;12.98;71.11
68476;BME280;55464;48.266;14.188;2023-05-10T08:15:54;97338.19;;;13.01;71.64
68476;BME280;55464;48.266;14.188;2023-05-10T08:18:20;97334.56;;;12.97;71.68
68476;BME280;55464;48.266;14.188;2023-05-10T08:20:46;97338.88;;;12.94;71.67
68476;BME280;55464;48.266;14.188;2023-05-10T08:23:14;97343.22;;;12.95;72.28
68476;BME280;55464;48.266;14.188;2023-05-10T08:25:40;97344.34;;;12.91;72.22
68476;BME280;55464;48.266;14.188;2023-05-10T08:28:06;97340.34;;;12.88;72.90
68476;BME280;55464;48.266;14.188;2023-05-10T08:30:31;97344.28;;;12.87;72.93
68476;BME280;55464;48.266;14.188;2023-05-10T08:32:57;97353.88;;;12.93;73.49
68476;BME280;55464;48.266;14.188;2023-05-10T08:35:22;97353.50;;;12.95;73.72
68476;BME280;55464;48.266;14.188;2023-05-10T08:37:47;97346.75;;;12.92;74.50
68476;BME280;55464;48.266;14.188;2023-05-10T08:40:14;97351.53;;;12.95;74.62
68476;BME280;55464;48.266;14.188;2023-05-10T08:42:43;97349.63;;;12.99;74.77
68476;BME280;55464;48.266;14.188;2023-05-10T08:45:11;97350.41;;;13.00;75.14
68476;BME280;55464;48.266;14.188;2023-05-10T08:47:37;97346.03;;;12.99;76.01
68476;BME280;55464;48.266;14.188;2023-05-10T08:50:03;97348.53;;;13.08;76.41
68476;BME280;55464;48.266;14.188;2023-05-10T08:52:29;97354.59;;;13.13;76.63
68476;BME280;55464;48.266;14.188;2023-05-10T08:54:55;97356.13;;;13.11;76.24
68476;BME280;55464;48.266;14.188;2023-05-10T08:57:21;97344.69;;;13.12;76.70
68476;BME280;55464;48.266;14.188;2023-05-10T08:59:46;97351.31;;;13.08;75.57
68476;BME280;55464;48.266;14.188;2023-05-10T09:02:12;97355.75;;;13.12;75.88
68476;BME280;55464;48.266;14.188;2023-05-10T09:04:38;97362.88;;;13.13;75.63
68476;BME280;55464;48.266;14.188;2023-05-10T09:07:04;97357.41;;;13.17;75.33
68476;BME280;55464;48.266;14.188;2023-05-10T09:09:30;97366.91;;;13.19;74.56
68476;BME280;55464;48.266;14.188;2023-05-10T09:11:56;97359.75;;;13.15;74.14
68476;BME280;55464;48.266;14.188;2023-05-10T09:14:23;97378.09;;;13.27;74.26
68476;BME280;55464;48.266;14.188;2023-05-10T09:16:49;97367.75;;;13.23;73.69
68476;BME280;55464;48.266;14.188;2023-05-10T09:19:15;97372.28;;;13.32;74.14
68476;BME280;55464;48.266;14.188;2023-05-10T09:21:40;97372.56;;;13.27;74.27
68476;BME280;55464;48.266;14.188;2023-05-10T09:24:07;97375.09;;;13.35;73.72
68476;BME280;55464;48.266;14.188;2023-05-10T09:26:33;97384.22;;;13.36;74.11
68476;BME280;55464;48.266;14.188;2023-05-10T09:29:00;97373.56;;;13.38;74.01
68476;BME280;55464;48.266;14.188;2023-05-10T09:31:44;97369.66;;;13.42;74.84
68476;BME280;55464;48.266;14.188;2023-05-10T09:34:17;97360.50;;;13.38;74.96
68476;BME280;55464;48.266;14.188;2023-05-10T09:36:58;97367.31;;;13.45;75.22
68476;BME280;55464;48.266;14.188;2023-05-10T09:39:43;97370.06;;;13.45;75.39
68476;BME280;55464;48.266;14.188;2023-05-10T09:42:09;97371.31;;;13.47;75.27
68476;BME280;55464;48.266;14.188;2023-05-10T09:44:35;97368.97;;;13.49;74.75
68476;BME280;55464;48.266;14.188;2023-05-10T09:47:02;97366.16;;;13.46;74.70
68476;BME280;55464;48.266;14.188;2023-05-10T09:49:28;97367.81;;;13.50;74.50
68476;BME280;55464;48.266;14.188;2023-05-10T09:52:04;97366.19;;;13.49;74.39
68476;BME280;55464;48.266;14.188;2023-05-10T09:54:30;97370.19;;;13.52;74.95
68476;BME280;55464;48.266;14.188;2023-05-10T09:56:56;97366.19;;;13.49;75.76
68476;BME280;55464;48.266;14.188;2023-05-10T09:59:25;97362.22;;;13.47;75.03
68476;BME280;55464;48.266;14.188;2023-05-10T10:01:51;97373.75;;;13.52;74.83
68476;BME280;55464;48.266;14.188;2023-05-10T10:04:17;97363.06;;;13.51;75.26
68476;BME280;55464;48.266;14.188;2023-05-10T10:06:44;97365.09;;;13.54;75.71
68476;BME280;55464;48.266;14.188;2023-05-10T10:09:10;97362.72;;;13.56;75.91
68476;BME280;55464;48.266;14.188;2023-05-10T10:11:37;97362.81;;;13.63;75.73
68476;BME280;55464;48.266;14.188;2023-05-10T10:14:03;97364.06;;;13.66;75.63
68476;BME280;55464;48.266;14.188;2023-05-10T10:16:29;97358.91;;;13.64;75.82
68476;BME280;55464;48.266;14.188;2023-05-10T10:18:56;97366.88;;;13.69;75.04
68476;BME280;55464;48.266;14.188;2023-05-10T10:21:22;97362.47;;;13.65;75.49
68476;BME280;55464;48.266;14.188;2023-05-10T10:23:47;97363.19;;;13.61;75.45
68476;BME280;55464;48.266;14.188;2023-05-10T10:26:14;97365.63;;;13.67;75.45
68476;BME280;55464;48.266;14.188;2023-05-10T10:31:38;97373.63;;;13.72;76.46
68476;BME280;55464;48.266;14.188;2023-05-10T10:34:09;97366.53;;;13.74;77.57
68476;BME280;55464;48.266;14.188;2023-05-10T10:36:45;97360.19;;;13.74;77.47
68476;BME280;55464;48.266;14.188;2023-05-10T10:39:11;97369.38;;;13.78;77.80
68476;BME280;55464;48.266;14.188;2023-05-10T10:41:39;97364.56;;;13.75;78.32
68476;BME280;55464;48.266;14.188;2023-05-10T10:52:21;97370.13;;;13.75;78.89
68476;BME280;55464;48.266;14.188;2023-05-10T10:54:58;97369.75;;;13.76;79.36
68476;BME280;55464;48.266;14.188;2023-05-10T10:57:24;97363.44;;;13.79;79.20
68476;BME280;55464;48.266;14.188;2023-05-10T10:59:53;97366.59;;;13.78;79.46
68476;BME280;55464;48.266;14.188;2023-05-10T11:02:46;97356.72;;;13.80;79.85
68476;BME280;55464;48.266;14.188;2023-05-10T11:08:07;97349.25;;;13.85;79.66
68476;BME280;55464;48.266;14.188;2023-05-10T11:10:33;97350.91;;;13.89;79.57
68476;BME280;55464;48.266;14.188;2023-05-10T11:13:02;97362.53;;;14.02;79.81
68476;BME280;55464;48.266;14.188;2023-05-10T11:15:43;97360.16;;;14.04;80.10
68476;BME280;55464;48.266;14.188;2023-05-10T11:20:52;97353.09;;;14.07;80.18
68476;BME280;55464;48.266;14.188;2023-05-10T11:23:20;97351.13;;;14.11;79.97
68476;BME280;55464;48.266;14.188;2023-05-10T11:25:47;97357.53;;;14.15;80.15
68476;BME280;55464;48.266;14.188;2023-05-10T11:28:13;97357.53;;;14.15;80.23
68476;BME280;55464;48.266;14.188;2023-05-10T11:30:40;97364.22;;;14.10;79.21
68476;BME280;55464;48.266;14.188;2023-05-10T11:33:07;97367.69;;;14.04;78.69
68476;BME280;55464;48.266;14.188;2023-05-10T11:35:39;97374.84;;;14.05;78.80
68476;BME280;55464;48.266;14.188;2023-05-10T11:38:06;97380.34;;;14.01;78.59
68476;BME280;55464;48.266;14.188;2023-05-10T11:40:32;97364.41;;;13.94;78.91
68476;BME280;55464;48.266;14.188;2023-05-10T11:42:57;97366.91;;;14.03;79.54
68476;BME280;55464;48.266;14.188;2023-05-10T11:45:24;97372.06;;;14.05;80.00
68476;BME280;55464;48.266;14.188;2023-05-10T11:47:49;97357.41;;;14.04;79.97
68476;BME280;55464;48.266;14.188;2023-05-10T11:50:15;97361.81;;;14.09;80.24
68476;BME280;55464;48.266;14.188;2023-05-10T11:52:40;97363.88;;;14.15;80.29
68476;BME280;55464;48.266;14.188;2023-05-10T11:55:06;97365.84;;;14.15;80.03
68476;BME280;55464;48.266;14.188;2023-05-10T11:57:32;97356.69;;;14.11;80.59
68476;BME280;55464;48.266;14.188;2023-05-10T11:59:57;97362.25;;;14.14;80.95
68476;BME280;55464;48.266;14.188;2023-05-10T12:02:23;97357.97;;;14.17;80.84
68476;BME280;55464;48.266;14.188;2023-05-10T12:04:50;97360.31;;;14.15;80.13
68476;BME280;55464;48.266;14.188;2023-05-10T12:07:16;97352.38;;;14.13;79.74
68476;BME280;55464;48.266;14.188;2023-05-10T12:10:11;97366.31;;;14.21;79.69
68476;BME280;55464;48.266;14.188;2023-05-10T12:12:41;97360.75;;;14.21;79.92
68476;BME280;55464;48.266;14.188;2023-05-10T12:15:20;97367.44;;;14.16;79.88
68476;BME280;55464;48.266;14.188;2023-05-10T12:17:47;97375.00;;;14.19;80.81
68476;BME280;55464;48.266;14.188;2023-05-10T12:20:23;97372.63;;;14.21;80.68
68476;BME280;55464;48.266;14.188;2023-05-10T12:25:14;97377.78;;;14.19;80.95
68476;BME280;55464;48.266;14.188;2023-05-10T12:27:40;97376.16;;;14.18;80.65
68476;BME280;55464;48.266;14.188;2023-05-10T12:30:06;97374.22;;;14.18;81.05
68476;BME280;55464;48.266;14.188;2023-05-10T12:32:41;97386.88;;;14.19;81.43
68476;BME280;55464;48.266;14.188;2023-05-10T12:35:07;97374.59;;;14.17;81.68
68476;BME280;55464;48.266;14.188;2023-05-10T12:37:34;97389.22;;;14.17;81.33
68476;BME280;55464;48.266;14.188;2023-05-10T12:40:07;97392.03;;;14.21;81.15
68476;BME280;55464;48.266;14.188;2023-05-10T12:42:34;97376.56;;;14.16;80.91
68476;BME280;55464;48.266;14.188;2023-05-10T12:45:01;97383.72;;;14.21;81.37
68476;BME280;55464;48.266;14.188;2023-05-10T12:47:26;97384.13;;;14.23;81.73
68476;BME280;55464;48.266;14.188;2023-05-10T12:49:51;97380.63;;;14.26;82.00
68476;BME280;55464;48.266;14.188;2023-05-10T12:52:17;97373.88;;;14.24;81.95
68476;BME280;55464;48.266;14.188;2023-05-10T12:54:43;97378.22;;;14.25;82.23
68476;BME280;55464;48.266;14.188;2023-05-10T12:57:09;97371.09;;;14.24;82.19
68476;BME280;55464;48.266;14.188;2023-05-10T12:59:34;97383.06;;;14.31;82.42
68476;BME280;55464;48.266;14.188;2023-05-10T13:02:00;97383.47;;;14.33;82.84
68476;BME280;55464;48.266;14.188;2023-05-10T13:04:25;97374.75;;;14.31;82.89
68476;BME280;55464;48.266;14.188;2023-05-10T13:06:51;97384.31;;;14.37;83.17
68476;BME280;55464;48.266;14.188;2023-05-10T13:09:16;97383.13;;;14.38;83.06
68476;BME280;55464;48.266;14.188;2023-05-10T13:11:42;97373.63;;;14.36;82.91
68476;BME280;55464;48.266;14.188;2023-05-10T13:14:07;97368.09;;;14.40;83.06
68476;BME280;55464;48.266;14.188;2023-05-10T13:16:33;97379.63;;;14.45;82.97
68476;BME280;55464;48.266;14.188;2023-05-10T13:18:58;97377.28;;;14.47;82.82
68476;BME280;55464;48.266;14.188;2023-05-10T13:21:24;97380.84;;;14.48;82.85
68476;BME280;55464;48.266;14.188;2023-05-10T13:23:50;97373.31;;;14.45;82.86
68476;BME280;55464;48.266;14.188;2023-05-10T13:26:16;97371.41;;;14.52;82.56
68476;BME280;55464;48.266;14.188;2023-05-10T13:28:41;97365.44;;;14.50;83.04